createdAt,value
2018-04-13T00:01:06.844Z,76.60
2018-04-13T00:03:33.284Z,76.60
2018-04-13T00:05:59.738Z,76.50
2018-04-13T00:08:26.168Z,76.50
2018-04-13T00:10:53.330Z,76.40
2018-04-13T00:13:19.764Z,76.40
2018-04-13T00:15:46.185Z,76.20
2018-04-13T00:18:12.625Z,76.40
2018-04-13T00:20:39.897Z,76.40
2018-04-13T00:23:07.088Z,76.40
2018-04-13T00:25:33.513Z,76.20
2018-04-13T00:28:00.666Z,76.70
2018-04-13T00:30:27.058Z,76.30
2018-04-13T00:32:53.615Z,76.30
2018-04-13T00:35:20.048Z,76.50
2018-04-13T00:37:46.452Z,76.40
2018-04-13T00:40:12.922Z,76.60
2018-04-13T00:42:39.337Z,76.40
2018-04-13T00:45:06.609Z,77.80
2018-04-13T00:47:33.761Z,76.90
2018-04-13T00:50:00.175Z,76.80
2018-04-13T00:52:26.649Z,77.30
2018-04-13T00:54:53.464Z,77.30
2018-04-13T00:57:19.911Z,77.50
2018-04-13T00:59:47.086Z,77.60
2018-04-13T01:02:13.551Z,77.50
2018-04-13T01:04:39.992Z,78.00
2018-04-13T01:07:06.451Z,78.10
2018-04-13T01:09:33.836Z,78.40
2018-04-13T01:12:00.261Z,78.30
2018-04-13T01:14:26.688Z,78.50
2018-04-13T01:16:53.107Z,78.50
2018-04-13T01:19:19.511Z,78.40
2018-04-13T01:21:45.987Z,78.60
2018-04-13T01:24:12.415Z,78.60
2018-04-13T01:26:38.833Z,78.50
2018-04-13T01:29:05.285Z,78.90
2018-04-13T01:31:31.717Z,79.00
2018-04-13T01:33:59.003Z,80.10
2018-04-13T01:36:26.155Z,79.70
2018-04-13T01:38:52.552Z,79.60
2018-04-13T01:41:18.987Z,79.90
2018-04-13T01:43:46.158Z,80.00
2018-04-13T01:46:13.312Z,80.10
2018-04-13T01:48:39.789Z,80.10
2018-04-13T01:51:06.970Z,80.30
2018-04-13T01:53:34.154Z,80.30
2018-04-13T01:56:00.572Z,80.30
2018-04-13T01:58:26.968Z,80.50
2018-04-13T02:00:54.392Z,80.70
2018-04-13T02:03:20.818Z,80.90
2018-04-13T02:05:47.202Z,81.10
2018-04-13T02:08:14.360Z,81.70
2018-04-13T02:10:40.840Z,81.50
2018-04-13T02:13:08.152Z,81.60
2018-04-13T02:15:34.591Z,81.90
2018-04-13T02:18:01.785Z,81.90
2018-04-13T02:20:28.268Z,81.90
2018-04-13T02:22:54.695Z,82.10
2018-04-13T02:25:21.174Z,82.00
2018-04-13T02:27:47.691Z,82.10
2018-04-13T02:30:14.884Z,82.10
2018-04-13T02:32:41.304Z,82.00
2018-04-13T02:35:08.451Z,81.90
2018-04-13T02:37:34.883Z,81.90
2018-04-13T02:40:01.267Z,82.00
2018-04-13T02:42:28.578Z,82.30
2018-04-13T02:44:55.085Z,82.20
2018-04-13T02:47:21.495Z,82.50
2018-04-13T02:49:47.966Z,82.40
2018-04-13T02:52:14.431Z,82.50
2018-04-13T02:54:40.847Z,82.10
2018-04-13T02:57:08.016Z,82.50
2018-04-13T02:59:34.485Z,82.50
2018-04-13T03:02:01.642Z,82.40
2018-04-13T03:04:29.422Z,82.20
2018-04-13T03:06:55.843Z,83.00
2018-04-13T03:09:22.277Z,82.00
2018-04-13T03:11:48.711Z,82.00
2018-04-13T03:14:15.872Z,82.30
2018-04-13T03:16:43.084Z,82.50
2018-04-13T03:19:09.818Z,82.40
2018-04-13T03:21:36.969Z,82.70
2018-04-13T03:24:03.951Z,82.70
2018-04-13T03:26:31.072Z,82.80
2018-04-13T03:28:57.489Z,82.70
2018-04-13T03:31:23.892Z,82.80
2018-04-13T03:33:50.302Z,82.90
2018-04-13T03:36:16.718Z,82.90
2018-04-13T03:38:43.128Z,83.10
2018-04-13T03:41:09.560Z,83.00
2018-04-13T03:43:36.701Z,83.10
2018-04-13T03:46:03.185Z,83.00
2018-04-13T03:48:30.381Z,83.20
2018-04-13T03:50:56.918Z,83.20
2018-04-13T03:53:24.113Z,83.60
2018-04-13T03:55:50.540Z,83.60
2018-04-13T03:58:17.770Z,83.90
2018-04-13T04:00:44.279Z,83.80
2018-04-13T04:03:10.729Z,83.90
2018-04-13T04:05:38.007Z,84.50
2018-04-13T04:08:04.497Z,84.30
2018-04-13T04:10:30.923Z,84.50
2018-04-13T04:12:58.143Z,85.00
2018-04-13T04:15:24.561Z,85.00
2018-04-13T04:17:50.946Z,85.10
2018-04-13T04:20:29.758Z,85.30
2018-04-13T04:23:08.588Z,85.60
2018-04-13T04:25:45.243Z,85.90
2018-04-13T04:28:11.809Z,86.30
2018-04-13T04:30:38.994Z,86.50
2018-04-13T04:33:05.435Z,86.50
2018-04-13T04:35:32.577Z,87.00
2018-04-13T04:37:59.077Z,86.90
2018-04-13T04:40:25.507Z,87.30
2018-04-13T04:42:52.753Z,87.70
2018-04-13T04:45:19.158Z,87.70
2018-04-13T04:47:45.598Z,87.60
2018-04-13T04:50:13.293Z,87.90
2018-04-13T04:52:39.741Z,87.90
2018-04-13T04:55:07.020Z,87.70
2018-04-13T04:57:34.200Z,87.70
2018-04-13T05:00:01.058Z,87.60
2018-04-13T05:02:28.206Z,87.30
2018-04-13T05:04:55.402Z,87.10
2018-04-13T05:07:22.639Z,87.10
2018-04-13T05:09:49.080Z,87.10
2018-04-13T05:12:15.515Z,87.00
2018-04-13T05:14:42.001Z,87.00
2018-04-13T05:17:08.450Z,86.80
2018-04-13T05:19:34.893Z,86.80
2018-04-13T05:22:01.341Z,86.70
2018-04-13T05:24:27.827Z,86.70
2018-04-13T05:26:54.297Z,86.90
2018-04-13T05:29:20.761Z,86.90
2018-04-13T05:31:47.929Z,87.00
2018-04-13T05:34:14.351Z,86.90
2018-04-13T05:36:40.745Z,87.10
2018-04-13T05:39:07.227Z,87.30
2018-04-13T05:41:33.659Z,88.50
2018-04-13T05:44:00.123Z,87.60
2018-04-13T05:46:27.314Z,87.60
2018-04-13T05:48:53.743Z,87.60
2018-04-13T05:51:20.888Z,87.70
2018-04-13T05:53:47.336Z,87.70
2018-04-13T05:56:13.860Z,87.90
2018-04-13T05:58:40.284Z,87.80
2018-04-13T06:01:06.723Z,88.00
2018-04-13T06:03:33.215Z,88.30
2018-04-13T06:06:00.412Z,88.90
2018-04-13T06:08:26.837Z,88.70
2018-04-13T06:10:53.997Z,89.80
2018-04-13T06:13:20.383Z,89.80
2018-04-13T06:15:46.869Z,90.00
2018-04-13T06:18:13.357Z,90.20
2018-04-13T06:20:39.787Z,90.40
2018-04-13T06:23:06.225Z,90.60
2018-04-13T06:25:32.693Z,90.70
2018-04-13T06:27:59.139Z,90.90
2018-04-13T06:30:25.564Z,91.10
2018-04-13T06:32:52.760Z,91.30
2018-04-13T06:35:19.233Z,91.30
2018-04-13T06:37:45.750Z,91.50
2018-04-13T06:40:12.905Z,91.60
2018-04-13T06:42:39.483Z,91.60
2018-04-13T06:45:06.757Z,91.70
2018-04-13T06:47:33.929Z,91.80
2018-04-13T06:50:01.204Z,91.60
2018-04-13T06:52:28.887Z,91.70
2018-04-13T06:54:55.595Z,91.70
2018-04-13T06:57:22.032Z,91.80
2018-04-13T06:59:48.493Z,91.60
2018-04-13T07:02:15.018Z,91.50
2018-04-13T07:04:42.761Z,91.20
2018-04-13T07:07:09.255Z,91.20
2018-04-13T07:09:36.410Z,90.60
2018-04-13T07:12:02.871Z,90.60
2018-04-13T07:14:29.279Z,90.30
2018-04-13T07:16:55.731Z,90.20
2018-04-13T07:19:22.156Z,90.50
2018-04-13T07:21:48.716Z,90.50
2018-04-13T07:24:15.851Z,90.90
2018-04-13T07:26:42.385Z,90.90
2018-04-13T07:29:08.785Z,91.20
2018-04-13T07:31:36.128Z,91.30
2018-04-13T07:34:02.638Z,91.20
2018-04-13T07:36:29.099Z,91.40
2018-04-13T07:38:55.555Z,91.60
2018-04-13T07:41:22.109Z,91.80
2018-04-13T07:43:48.662Z,92.10
2018-04-13T07:46:15.116Z,92.40
2018-04-13T07:48:42.328Z,92.70
2018-04-13T07:51:09.307Z,92.70
2018-04-13T07:53:35.246Z,92.90
2018-04-13T07:56:01.759Z,93.10
2018-04-13T07:58:28.920Z,93.20
2018-04-13T08:00:56.513Z,93.20
2018-04-13T08:03:23.504Z,93.20
2018-04-13T08:05:49.529Z,93.30
2018-04-13T08:08:16.709Z,93.70
2018-04-13T08:10:43.073Z,93.70
2018-04-13T08:13:09.490Z,93.70
2018-04-13T08:15:36.875Z,93.90
2018-04-13T08:18:03.322Z,93.60
2018-04-13T08:20:29.801Z,93.70
2018-04-13T08:22:56.985Z,93.70
2018-04-13T08:25:23.533Z,93.70
2018-04-13T08:27:49.965Z,93.50
2018-04-13T08:30:16.992Z,93.50
2018-04-13T08:32:43.515Z,93.50
2018-04-13T08:35:10.718Z,93.80
2018-04-13T08:37:37.144Z,93.80
2018-04-13T08:40:04.978Z,93.80
2018-04-13T08:42:32.121Z,93.80
2018-04-13T08:44:58.632Z,93.90
2018-04-13T08:47:25.830Z,94.00
2018-04-13T08:49:53.106Z,93.90
2018-04-13T08:52:20.379Z,94.20
2018-04-13T08:54:46.939Z,93.90
2018-04-13T08:57:13.404Z,93.90
2018-04-13T08:59:39.825Z,93.80
2018-04-13T09:02:06.265Z,93.70
2018-04-13T09:04:32.700Z,93.80
2018-04-13T09:06:59.105Z,94.00
2018-04-13T09:09:26.309Z,94.00
2018-04-13T09:11:52.746Z,93.90
2018-04-13T09:14:19.163Z,93.70
2018-04-13T09:16:45.601Z,93.60
2018-04-13T09:19:12.071Z,93.60
2018-04-13T09:21:38.513Z,93.60
2018-04-13T09:24:04.983Z,93.60
2018-04-13T09:26:31.416Z,93.60
2018-04-13T09:28:57.943Z,93.60
2018-04-13T09:31:25.158Z,93.30
2018-04-13T09:33:51.596Z,92.80
2018-04-13T09:36:18.125Z,92.40
2018-04-13T09:38:45.367Z,91.40
2018-04-13T09:41:11.960Z,91.40
2018-04-13T09:43:39.239Z,90.50
2018-04-13T09:46:05.722Z,90.50
2018-04-13T09:48:32.151Z,90.50
2018-04-13T09:50:58.611Z,90.30
2018-04-13T09:53:25.013Z,89.80
2018-04-13T09:55:51.515Z,89.60
2018-04-13T09:58:18.685Z,88.80
2018-04-13T10:00:45.911Z,87.80
2018-04-13T10:03:18.511Z,87.80
2018-04-13T10:05:45.112Z,87.60
2018-04-13T10:08:12.284Z,86.70
2018-04-13T10:10:39.461Z,85.90
2018-04-13T10:13:05.895Z,85.90
2018-04-13T10:15:33.095Z,85.20
2018-04-13T10:17:59.644Z,85.20
2018-04-13T10:20:26.858Z,84.70
2018-04-13T10:22:53.258Z,84.70
2018-04-13T10:25:20.549Z,84.90
2018-04-13T10:27:47.106Z,84.80
2018-04-13T10:30:14.254Z,84.40
2018-04-13T10:32:40.706Z,84.40
2018-04-13T10:35:07.189Z,85.10
2018-04-13T10:37:34.349Z,86.00
2018-04-13T10:40:01.526Z,87.40
2018-04-13T10:42:28.714Z,86.90
2018-04-13T10:44:55.113Z,86.80
2018-04-13T10:47:21.546Z,87.00
2018-04-13T10:49:47.965Z,88.30
2018-04-13T10:52:15.138Z,90.70
2018-04-13T10:54:42.302Z,91.50
2018-04-13T10:57:08.730Z,91.50
2018-04-13T10:59:35.245Z,91.20
2018-04-13T11:02:01.791Z,92.10
2018-04-13T11:04:28.208Z,93.00
2018-04-13T11:06:54.840Z,93.30
2018-04-13T11:09:22.020Z,94.10
2018-04-13T11:11:48.452Z,94.40
2018-04-13T11:14:15.108Z,94.70
2018-04-13T11:16:42.275Z,95.20
2018-04-13T11:19:08.679Z,95.20
2018-04-13T11:21:35.103Z,95.90
2018-04-13T11:24:02.142Z,96.60
2018-04-13T11:26:29.303Z,96.20
2018-04-13T11:28:57.011Z,96.10
2018-04-13T11:31:24.142Z,96.10
2018-04-13T11:33:51.340Z,96.50
2018-04-13T11:36:18.500Z,96.80
2018-04-13T11:38:45.828Z,96.90
2018-04-13T11:41:12.325Z,96.80
2018-04-13T11:43:39.622Z,97.00
2018-04-13T11:46:06.094Z,96.90
2018-04-13T11:48:32.534Z,97.50
2018-04-13T11:51:00.425Z,97.40
2018-04-13T11:53:27.801Z,97.60
2018-04-13T11:55:54.977Z,97.50
2018-04-13T11:58:21.528Z,97.50
2018-04-13T12:00:48.754Z,97.20
2018-04-13T12:03:15.262Z,97.20
2018-04-13T12:05:41.721Z,96.90
2018-04-13T12:08:08.196Z,96.20
2018-04-13T12:10:34.729Z,95.90
2018-04-13T12:13:02.631Z,94.80
2018-04-13T12:15:29.126Z,94.80
2018-04-13T12:17:55.576Z,95.10
2018-04-13T12:20:22.055Z,93.40
2018-04-13T12:22:48.523Z,92.20
2018-04-13T12:25:15.823Z,90.90
2018-04-13T12:27:42.999Z,88.10
2018-04-13T12:30:10.177Z,86.40
2018-04-13T12:32:36.727Z,86.40
2018-04-13T12:35:03.899Z,88.00
2018-04-13T12:37:31.117Z,88.40
2018-04-13T12:39:57.732Z,88.40
2018-04-13T12:42:25.006Z,88.20
2018-04-13T12:44:51.454Z,88.20
2018-04-13T12:47:18.654Z,89.20
2018-04-13T12:49:45.098Z,89.20
2018-04-13T12:52:11.554Z,88.50
2018-04-13T12:54:38.209Z,88.30
2018-04-13T12:57:04.573Z,88.60
2018-04-13T12:59:31.030Z,88.00
2018-04-13T13:01:57.464Z,86.50
2018-04-13T13:04:24.660Z,86.70
2018-04-13T13:06:51.106Z,86.50
2018-04-13T13:09:18.305Z,87.60
2018-04-13T13:11:45.244Z,87.60
2018-04-13T13:14:13.605Z,85.70
2018-04-13T13:16:40.714Z,85.70
2018-04-13T13:19:07.196Z,85.60
2018-04-13T13:21:33.830Z,83.80
2018-04-13T13:24:00.391Z,83.20
2018-04-13T13:26:27.074Z,83.30
2018-04-13T13:28:53.541Z,83.40
2018-04-13T13:31:20.555Z,82.50
2018-04-13T13:33:47.031Z,82.10
2018-04-13T13:36:14.177Z,78.60
2018-04-13T13:38:40.665Z,78.60
2018-04-13T13:41:07.194Z,78.90
2018-04-13T13:43:33.632Z,78.80
2018-04-13T13:46:00.082Z,77.20
2018-04-13T13:48:26.586Z,76.90
2018-04-13T13:50:53.862Z,73.40
2018-04-13T13:53:21.136Z,71.00
2018-04-13T13:55:48.411Z,70.70
2018-04-13T13:58:15.390Z,70.60
2018-04-13T14:00:41.809Z,71.30
2018-04-13T14:03:08.275Z,69.90
2018-04-13T14:05:35.567Z,69.50
2018-04-13T14:08:02.839Z,65.20
2018-04-13T14:10:29.399Z,65.20
2018-04-13T14:12:55.873Z,62.70
2018-04-13T14:15:22.316Z,63.30
2018-04-13T14:17:48.804Z,61.00
2018-04-13T14:20:15.326Z,58.10
2018-04-13T14:22:42.609Z,53.90
2018-04-13T14:25:09.076Z,53.80
2018-04-13T14:27:35.503Z,54.30
2018-04-13T14:30:02.768Z,50.80
2018-04-13T14:32:29.941Z,51.30
2018-04-13T14:34:57.132Z,49.70
2018-04-13T14:37:24.376Z,49.60
2018-04-13T14:39:50.820Z,49.60
2018-04-13T14:42:17.368Z,49.10
2018-04-13T14:44:43.897Z,49.60
2018-04-13T14:47:10.338Z,48.90
2018-04-13T14:49:37.709Z,48.90
2018-04-13T14:52:04.153Z,49.40
2018-04-13T14:54:31.339Z,48.30
2018-04-13T14:56:59.073Z,47.80
2018-04-13T14:59:25.579Z,47.80
2018-04-13T15:01:52.774Z,49.20
2018-04-13T15:04:19.923Z,49.20
2018-04-13T15:06:47.139Z,49.90
2018-04-13T15:09:13.591Z,49.90
2018-04-13T15:11:40.111Z,50.80
2018-04-13T15:14:07.386Z,51.80
2018-04-13T15:16:35.173Z,51.70
2018-04-13T15:19:02.445Z,52.40
2018-04-13T15:21:29.589Z,53.20
2018-04-13T15:23:56.177Z,53.10
2018-04-13T15:26:22.736Z,53.40
2018-04-13T15:28:50.012Z,54.80
2018-04-13T15:31:16.466Z,54.70
2018-04-13T15:33:43.740Z,54.80
2018-04-13T15:36:10.926Z,55.30
2018-04-13T15:38:37.354Z,55.30
2018-04-13T15:41:03.850Z,55.80
2018-04-13T15:43:30.290Z,55.80
2018-04-13T15:45:56.770Z,56.30
2018-04-13T15:48:23.397Z,56.30
2018-04-13T15:50:49.871Z,55.80
2018-04-13T15:53:16.305Z,55.10
2018-04-13T15:55:43.533Z,54.90
2018-04-13T15:58:09.952Z,54.90
2018-04-13T16:00:36.503Z,54.30
2018-04-13T16:03:02.945Z,54.30
2018-04-13T16:05:30.237Z,54.40
2018-04-13T16:07:56.759Z,54.40
2018-04-13T16:10:24.565Z,55.00
2018-04-13T16:12:52.674Z,55.10
2018-04-13T16:15:19.159Z,55.10
2018-04-13T16:17:45.781Z,54.90
2018-04-13T16:20:12.996Z,55.30
2018-04-13T16:22:39.465Z,55.30
2018-04-13T16:25:05.916Z,55.10
2018-04-13T16:27:32.527Z,55.40
2018-04-13T16:29:59.804Z,55.90
2018-04-13T16:32:27.844Z,56.10
2018-04-13T16:34:54.353Z,56.10
2018-04-13T16:37:20.819Z,56.60
2018-04-13T16:39:47.371Z,56.90
2018-04-13T16:42:14.355Z,56.70
2018-04-13T16:44:41.891Z,56.60
2018-04-13T16:47:08.783Z,56.40
2018-04-13T16:49:35.243Z,56.50
2018-04-13T16:52:02.613Z,56.60
2018-04-13T16:54:29.173Z,57.10
2018-04-13T16:56:55.730Z,58.40
2018-04-13T16:59:23.002Z,61.80
2018-04-13T17:01:50.256Z,63.00
2018-04-13T17:04:16.850Z,62.90
2018-04-13T17:06:43.455Z,64.30
2018-04-13T17:09:09.983Z,64.80
2018-04-13T17:11:36.512Z,65.90
2018-04-13T17:14:03.784Z,67.10
2018-04-13T17:16:31.163Z,68.10
2018-04-13T17:18:58.336Z,69.00
2018-04-13T17:21:24.889Z,69.00
2018-04-13T17:23:52.171Z,70.50
2018-04-13T17:26:18.725Z,70.50
2018-04-13T17:28:45.914Z,71.40
2018-04-13T17:31:12.469Z,71.40
2018-04-13T17:33:39.730Z,72.50
2018-04-13T17:36:06.416Z,72.40
2018-04-13T17:38:33.257Z,72.90
2018-04-13T17:40:59.820Z,73.10
2018-04-13T17:43:26.484Z,73.70
2018-04-13T17:45:53.547Z,74.80
2018-04-13T17:48:20.118Z,76.20
2018-04-13T17:50:46.626Z,77.70
2018-04-13T17:53:13.130Z,78.50
2018-04-13T17:55:40.184Z,79.00
2018-04-13T17:58:07.466Z,80.10
2018-04-13T18:00:34.701Z,80.00
2018-04-13T18:03:01.628Z,80.00
2018-04-13T18:05:30.510Z,80.10
2018-04-13T18:07:57.025Z,80.70
2018-04-13T18:10:23.950Z,82.20
2018-04-13T18:12:50.496Z,83.80
2018-04-13T18:15:19.512Z,88.00
2018-04-13T18:17:46.716Z,89.70
2018-04-13T18:20:13.179Z,89.70
2018-04-13T18:22:39.701Z,90.50
2018-04-13T18:25:06.954Z,90.80
2018-04-13T18:27:34.161Z,90.80
2018-04-13T18:30:00.651Z,90.70
2018-04-13T18:32:27.979Z,90.50
2018-04-13T18:34:55.254Z,90.60
2018-04-13T18:37:21.811Z,90.60
2018-04-13T18:39:49.095Z,89.40
2018-04-13T18:42:15.645Z,89.40
2018-04-13T18:44:42.064Z,88.00
2018-04-13T18:47:08.613Z,86.50
2018-04-13T18:49:35.047Z,87.40
2018-04-13T18:52:01.479Z,88.10
2018-04-13T18:54:27.913Z,86.90
2018-04-13T18:56:55.129Z,85.90
2018-04-13T18:59:21.657Z,85.90
2018-04-13T19:01:48.859Z,86.30
2018-04-13T19:04:15.393Z,86.30
2018-04-13T19:06:41.860Z,86.80
2018-04-13T19:09:08.509Z,87.40
2018-04-13T19:11:35.143Z,87.90
2018-04-13T19:14:02.336Z,85.60
2018-04-13T19:16:28.897Z,85.60
2018-04-13T19:18:55.361Z,85.50
2018-04-13T19:21:21.881Z,84.60
2018-04-13T19:23:48.375Z,85.60
2018-04-13T19:26:15.087Z,85.70
2018-04-13T19:28:41.592Z,86.30
2018-04-13T19:31:08.155Z,87.10
2018-04-13T19:33:34.729Z,87.20
2018-04-13T19:36:01.244Z,88.10
2018-04-13T19:38:28.429Z,89.80
2018-04-13T19:40:56.017Z,90.00
2018-04-13T19:43:22.565Z,90.00
2018-04-13T19:45:49.766Z,90.20
2018-04-13T19:48:16.799Z,90.20
2018-04-13T19:50:44.192Z,90.50
2018-04-13T19:53:10.958Z,90.50
2018-04-13T19:55:38.373Z,91.10
2018-04-13T19:58:04.796Z,90.80
2018-04-13T20:00:31.278Z,91.00
2018-04-13T20:02:57.914Z,91.30
2018-04-13T20:05:25.732Z,91.80
2018-04-13T20:07:52.200Z,92.30
2018-04-13T20:10:20.662Z,92.40
2018-04-13T20:12:47.660Z,92.70
2018-04-13T20:15:27.267Z,92.80
2018-04-13T20:17:53.722Z,93.00
2018-04-13T20:20:21.018Z,93.70
2018-04-13T20:22:47.561Z,93.70
2018-04-13T20:25:14.124Z,94.00
2018-04-13T20:27:40.672Z,94.20
2018-04-13T20:30:08.049Z,94.40
2018-04-13T20:32:37.334Z,94.60
2018-04-13T20:35:03.925Z,94.60
2018-04-13T20:37:30.492Z,94.50
2018-04-13T20:39:56.928Z,94.40
2018-04-13T20:42:24.319Z,94.40
2018-04-13T20:44:51.473Z,94.40
2018-04-13T20:47:18.630Z,94.50
2018-04-13T20:49:45.141Z,94.50
2018-04-13T20:52:11.681Z,95.20
2018-04-13T20:54:38.134Z,94.80
2018-04-13T20:57:04.650Z,94.80
2018-04-13T20:59:31.251Z,94.90
2018-04-13T21:01:57.728Z,95.00
2018-04-13T21:04:24.243Z,95.10
2018-04-13T21:06:50.717Z,95.10
2018-04-13T21:09:18.014Z,95.20
2018-04-13T21:11:44.555Z,95.20
2018-04-13T21:14:11.834Z,95.40
2018-04-13T21:16:38.322Z,95.40
2018-04-13T21:19:05.053Z,95.40
2018-04-13T21:21:32.152Z,95.30
2018-04-13T21:23:59.240Z,95.30
2018-04-13T21:26:25.690Z,95.40
2018-04-13T21:28:52.527Z,95.60
2018-04-13T21:31:19.004Z,95.90
2018-04-13T21:33:45.460Z,96.10
2018-04-13T21:36:11.901Z,96.30
2018-04-13T21:38:40.278Z,96.40
2018-04-13T21:41:07.466Z,96.80
2018-04-13T21:43:34.010Z,96.80
2018-04-13T21:46:01.084Z,97.10
2018-04-13T21:48:27.534Z,97.40
2018-04-13T21:50:54.725Z,97.80
2018-04-13T21:53:21.267Z,97.80
2018-04-13T21:55:48.437Z,98.10
2018-04-13T21:58:15.712Z,98.50
2018-04-13T22:00:43.191Z,98.80
2018-04-13T22:03:10.385Z,99.00
2018-04-13T22:05:37.537Z,99.00
2018-04-13T22:08:04.773Z,99.00
2018-04-13T22:10:31.268Z,99.00
2018-04-13T22:13:23.653Z,99.20
2018-04-13T22:15:50.202Z,99.10
2018-04-13T22:18:16.671Z,99.10
2018-04-13T22:20:43.187Z,99.30
2018-04-13T22:23:10.037Z,99.40
2018-04-13T22:25:36.496Z,99.40
2018-04-13T22:28:02.975Z,99.50
2018-04-13T22:30:31.557Z,99.50
2018-04-13T22:33:00.637Z,99.60
2018-04-13T22:35:29.257Z,99.50
2018-04-13T22:37:56.548Z,99.50
2018-04-13T22:40:23.055Z,99.50
2018-04-13T22:42:49.514Z,99.60
2018-04-13T22:45:15.921Z,99.70
2018-04-13T22:47:42.350Z,99.80
2018-04-13T22:50:09.148Z,99.90
2018-04-13T22:52:35.572Z,99.90
2018-04-13T22:55:02.052Z,99.90
2018-04-13T22:57:28.468Z,99.90
2018-04-13T22:59:55.022Z,99.90
2018-04-13T23:02:21.461Z,99.90
2018-04-13T23:04:47.899Z,99.90
2018-04-13T23:07:14.335Z,99.90
2018-04-13T23:09:43.049Z,99.90
2018-04-13T23:12:09.507Z,99.90
2018-04-13T23:14:36.051Z,99.90
2018-04-13T23:17:04.378Z,99.90
2018-04-13T23:19:30.808Z,99.90
2018-04-13T23:21:57.225Z,99.90
2018-04-13T23:24:23.716Z,99.90
2018-04-13T23:26:50.897Z,99.90
2018-04-13T23:29:17.365Z,99.90
2018-04-13T23:31:43.744Z,99.90
2018-04-13T23:34:11.203Z,99.90
2018-04-13T23:36:37.735Z,99.90
2018-04-13T23:39:04.993Z,99.90
2018-04-13T23:41:32.217Z,99.90
2018-04-13T23:43:58.650Z,99.90
2018-04-13T23:46:25.202Z,99.90
2018-04-13T23:48:51.650Z,99.90
2018-04-13T23:51:18.860Z,99.90
2018-04-13T23:53:45.366Z,99.90
2018-04-13T23:56:12.578Z,99.90
2018-04-13T23:58:38.996Z,99.90
